San Diego, California
Traffic Map
Current Weather Conditions
San Diego, California
Scattered Clouds
Scattered Clouds
21°
Feels Like: 21°
Wind Chill: 21° Ceiling: Unl
Heat Index: 21° Visibility: 9mi
Dew Point: 16° Wind: 0mph
Humidity: 73% Direction: ° ()
Pressure: 29.92in Gusts: 0mph
Raw Report DataKSAN 211623Z 00000KT 9SM SCT018 21/16 A2992 RMK AO2
Traffic Incident Summary
Active as of:
Severity:
Category:
InformationThere was an issue retrieving the traffic information for this location. Please try a different location or try again shortly.
Advertisements
Track Severe Weather on mobile